sensor_id;sensor_type;location;lat;lon;timestamp;temperature;humidity
71994;DHT22;59861;50.268;8.648;2022-12-10T00:02:16;15.70;56.30
71994;DHT22;59861;50.268;8.648;2022-12-10T00:04:43;15.70;56.20
71994;DHT22;59861;50.268;8.648;2022-12-10T00:07:10;15.70;56.20
71994;DHT22;59861;50.268;8.648;2022-12-10T00:09:37;15.70;56.20
71994;DHT22;59861;50.268;8.648;2022-12-10T00:12:04;15.70;56.20
71994;DHT22;59861;50.268;8.648;2022-12-10T00:14:31;15.70;56.10
71994;DHT22;59861;50.268;8.648;2022-12-10T00:16:58;15.70;56.10
71994;DHT22;59861;50.268;8.648;2022-12-10T00:19:25;15.70;56.00
71994;DHT22;59861;50.268;8.648;2022-12-10T00:21:52;15.70;56.00
71994;DHT22;59861;50.268;8.648;2022-12-10T00:24:18;15.70;55.90
71994;DHT22;59861;50.268;8.648;2022-12-10T00:26:45;15.70;56.00
71994;DHT22;59861;50.268;8.648;2022-12-10T00:29:12;15.70;55.90
71994;DHT22;59861;50.268;8.648;2022-12-10T00:31:39;15.70;55.90
71994;DHT22;59861;50.268;8.648;2022-12-10T00:34:07;15.70;55.80
71994;DHT22;59861;50.268;8.648;2022-12-10T00:36:40;15.80;55.80
71994;DHT22;59861;50.268;8.648;2022-12-10T00:39:06;15.80;55.80
71994;DHT22;59861;50.268;8.648;2022-12-10T00:41:33;15.80;55.70
71994;DHT22;59861;50.268;8.648;2022-12-10T00:43:59;15.80;55.80
71994;DHT22;59861;50.268;8.648;2022-12-10T00:46:26;15.70;55.60
71994;DHT22;59861;50.268;8.648;2022-12-10T00:48:53;15.80;55.60
71994;DHT22;59861;50.268;8.648;2022-12-10T00:51:21;15.70;55.50
71994;DHT22;59861;50.268;8.648;2022-12-10T00:53:49;15.70;56.20
71994;DHT22;59861;50.268;8.648;2022-12-10T00:56:20;15.70;55.60
71994;DHT22;59861;50.268;8.648;2022-12-10T00:58:44;15.70;55.50
71994;DHT22;59861;50.268;8.648;2022-12-10T01:01:14;15.70;55.50
71994;DHT22;59861;50.268;8.648;2022-12-10T01:03:41;15.70;55.50
71994;DHT22;59861;50.268;8.648;2022-12-10T01:06:12;15.70;55.40
71994;DHT22;59861;50.268;8.648;2022-12-10T01:08:39;15.70;55.50
71994;DHT22;59861;50.268;8.648;2022-12-10T01:11:06;15.60;55.60
71994;DHT22;59861;50.268;8.648;2022-12-10T01:13:33;15.60;55.80
71994;DHT22;59861;50.268;8.648;2022-12-10T01:16:01;15.60;55.80
71994;DHT22;59861;50.268;8.648;2022-12-10T01:18:28;15.60;55.90
71994;DHT22;59861;50.268;8.648;2022-12-10T01:20:57;15.60;55.90
71994;DHT22;59861;50.268;8.648;2022-12-10T01:23:23;15.60;55.90
71994;DHT22;59861;50.268;8.648;2022-12-10T01:25:50;15.60;56.00
71994;DHT22;59861;50.268;8.648;2022-12-10T01:28:17;15.60;55.90
71994;DHT22;59861;50.268;8.648;2022-12-10T01:30:44;15.60;55.90
71994;DHT22;59861;50.268;8.648;2022-12-10T01:33:11;15.60;55.90
71994;DHT22;59861;50.268;8.648;2022-12-10T01:35:37;15.60;56.00
71994;DHT22;59861;50.268;8.648;2022-12-10T01:38:04;15.60;55.90
71994;DHT22;59861;50.268;8.648;2022-12-10T01:40:31;15.60;55.90
71994;DHT22;59861;50.268;8.648;2022-12-10T01:42:59;15.60;55.90
71994;DHT22;59861;50.268;8.648;2022-12-10T01:45:26;15.60;55.90
71994;DHT22;59861;50.268;8.648;2022-12-10T01:47:53;15.60;55.80
71994;DHT22;59861;50.268;8.648;2022-12-10T01:50:20;15.60;55.80
71994;DHT22;59861;50.268;8.648;2022-12-10T01:52:47;15.60;55.80
71994;DHT22;59861;50.268;8.648;2022-12-10T01:57:58;15.60;55.70
71994;DHT22;59861;50.268;8.648;2022-12-10T02:00:25;15.60;55.70
71994;DHT22;59861;50.268;8.648;2022-12-10T02:02:56;15.60;55.40
71994;DHT22;59861;50.268;8.648;2022-12-10T02:05:28;15.60;55.70
71994;DHT22;59861;50.268;8.648;2022-12-10T02:16:07;15.60;55.50
71994;DHT22;59861;50.268;8.648;2022-12-10T02:18:36;15.60;55.50
71994;DHT22;59861;50.268;8.648;2022-12-10T02:20:59;15.50;55.50
71994;DHT22;59861;50.268;8.648;2022-12-10T02:23:31;15.60;55.50
71994;DHT22;59861;50.268;8.648;2022-12-10T02:26:09;15.50;55.50
71994;DHT22;59861;50.268;8.648;2022-12-10T02:31:02;15.50;55.40
71994;DHT22;59861;50.268;8.648;2022-12-10T02:33:30;15.50;55.40
71994;DHT22;59861;50.268;8.648;2022-12-10T02:35:58;15.50;55.50
71994;DHT22;59861;50.268;8.648;2022-12-10T02:38:32;15.60;55.50
71994;DHT22;59861;50.268;8.648;2022-12-10T02:41:01;15.50;55.40
71994;DHT22;59861;50.268;8.648;2022-12-10T02:43:28;15.50;55.40
71994;DHT22;59861;50.268;8.648;2022-12-10T02:46:01;15.50;55.30
71994;DHT22;59861;50.268;8.648;2022-12-10T02:48:24;15.50;55.30
71994;DHT22;59861;50.268;8.648;2022-12-10T02:50:51;15.60;55.40
71994;DHT22;59861;50.268;8.648;2022-12-10T02:53:18;15.60;55.40
71994;DHT22;59861;50.268;8.648;2022-12-10T02:58:28;15.60;55.30
71994;DHT22;59861;50.268;8.648;2022-12-10T03:01:17;15.50;55.30
71994;DHT22;59861;50.268;8.648;2022-12-10T03:03:41;15.50;55.50
71994;DHT22;59861;50.268;8.648;2022-12-10T03:08:35;15.50;55.60
71994;DHT22;59861;50.268;8.648;2022-12-10T03:11:21;15.50;55.60
71994;DHT22;59861;50.268;8.648;2022-12-10T03:16:28;15.50;55.70
71994;DHT22;59861;50.268;8.648;2022-12-10T03:18:56;15.50;55.70
71994;DHT22;59861;50.268;8.648;2022-12-10T03:21:24;15.50;55.60
71994;DHT22;59861;50.268;8.648;2022-12-10T03:23:51;15.50;55.60
71994;DHT22;59861;50.268;8.648;2022-12-10T03:26:19;15.50;55.60
71994;DHT22;59861;50.268;8.648;2022-12-10T03:28:49;15.50;55.60
71994;DHT22;59861;50.268;8.648;2022-12-10T03:31:15;15.50;55.60
71994;DHT22;59861;50.268;8.648;2022-12-10T03:33:43;15.50;55.60
71994;DHT22;59861;50.268;8.648;2022-12-10T03:36:10;15.50;55.50
71994;DHT22;59861;50.268;8.648;2022-12-10T03:38:38;15.50;55.50
71994;DHT22;59861;50.268;8.648;2022-12-10T03:41:05;15.50;55.50
71994;DHT22;59861;50.268;8.648;2022-12-10T03:43:32;15.50;55.60
71994;DHT22;59861;50.268;8.648;2022-12-10T03:45:59;15.50;55.50
71994;DHT22;59861;50.268;8.648;2022-12-10T03:48:26;15.50;55.50
71994;DHT22;59861;50.268;8.648;2022-12-10T03:51:14;15.50;55.40
71994;DHT22;59861;50.268;8.648;2022-12-10T03:53:40;15.50;55.40
71994;DHT22;59861;50.268;8.648;2022-12-10T03:56:07;15.50;55.40
71994;DHT22;59861;50.268;8.648;2022-12-10T03:58:34;15.50;55.40
71994;DHT22;59861;50.268;8.648;2022-12-10T04:01:02;15.50;55.40
71994;DHT22;59861;50.268;8.648;2022-12-10T04:03:29;15.50;55.30
71994;DHT22;59861;50.268;8.648;2022-12-10T04:06:03;15.40;55.30
71994;DHT22;59861;50.268;8.648;2022-12-10T04:08:31;15.40;55.30
71994;DHT22;59861;50.268;8.648;2022-12-10T04:11:04;15.40;55.20
71994;DHT22;59861;50.268;8.648;2022-12-10T04:13:32;15.40;55.20
71994;DHT22;59861;50.268;8.648;2022-12-10T04:16:17;15.40;55.20
71994;DHT22;59861;50.268;8.648;2022-12-10T04:18:53;15.40;55.20
71994;DHT22;59861;50.268;8.648;2022-12-10T04:21:20;15.40;55.20
71994;DHT22;59861;50.268;8.648;2022-12-10T04:24:06;15.40;55.20
71994;DHT22;59861;50.268;8.648;2022-12-10T04:26:51;15.40;55.20
71994;DHT22;59861;50.268;8.648;2022-12-10T04:29:19;15.40;55.20
71994;DHT22;59861;50.268;8.648;2022-12-10T04:31:46;15.40;55.10
71994;DHT22;59861;50.268;8.648;2022-12-10T04:34:13;15.40;55.10
71994;DHT22;59861;50.268;8.648;2022-12-10T04:36:40;15.40;55.10
71994;DHT22;59861;50.268;8.648;2022-12-10T04:39:06;15.50;55.00
71994;DHT22;59861;50.268;8.648;2022-12-10T04:41:33;15.50;55.10
71994;DHT22;59861;50.268;8.648;2022-12-10T04:44:00;15.50;55.00
71994;DHT22;59861;50.268;8.648;2022-12-10T04:46:27;15.50;55.10
71994;DHT22;59861;50.268;8.648;2022-12-10T04:48:54;15.50;54.90
71994;DHT22;59861;50.268;8.648;2022-12-10T04:51:21;15.50;55.00
71994;DHT22;59861;50.268;8.648;2022-12-10T04:53:48;15.40;55.10
71994;DHT22;59861;50.268;8.648;2022-12-10T04:56:14;15.40;56.00
71994;DHT22;59861;50.268;8.648;2022-12-10T04:58:41;15.40;55.40
71994;DHT22;59861;50.268;8.648;2022-12-10T05:01:09;15.40;55.40
71994;DHT22;59861;50.268;8.648;2022-12-10T05:03:37;15.40;55.40
71994;DHT22;59861;50.268;8.648;2022-12-10T05:06:04;15.40;55.40
71994;DHT22;59861;50.268;8.648;2022-12-10T05:08:32;15.40;55.40
71994;DHT22;59861;50.268;8.648;2022-12-10T05:11:02;15.40;55.40
71994;DHT22;59861;50.268;8.648;2022-12-10T05:13:29;15.40;55.40
71994;DHT22;59861;50.268;8.648;2022-12-10T05:15:56;15.40;55.40
71994;DHT22;59861;50.268;8.648;2022-12-10T05:18:23;15.40;55.40
71994;DHT22;59861;50.268;8.648;2022-12-10T05:20:50;15.40;55.40
71994;DHT22;59861;50.268;8.648;2022-12-10T05:23:16;15.40;55.30
71994;DHT22;59861;50.268;8.648;2022-12-10T05:25:57;15.40;55.30
71994;DHT22;59861;50.268;8.648;2022-12-10T05:28:20;15.40;55.30
71994;DHT22;59861;50.268;8.648;2022-12-10T05:30:47;15.40;55.20
71994;DHT22;59861;50.268;8.648;2022-12-10T05:33:14;15.40;55.20
71994;DHT22;59861;50.268;8.648;2022-12-10T05:35:41;15.40;55.30
71994;DHT22;59861;50.268;8.648;2022-12-10T05:38:08;15.40;55.30
71994;DHT22;59861;50.268;8.648;2022-12-10T05:40:36;15.40;55.20
71994;DHT22;59861;50.268;8.648;2022-12-10T05:43:03;15.40;55.20
71994;DHT22;59861;50.268;8.648;2022-12-10T05:45:33;15.40;55.10
71994;DHT22;59861;50.268;8.648;2022-12-10T05:48:00;15.40;55.10
71994;DHT22;59861;50.268;8.648;2022-12-10T05:50:27;15.40;55.20
71994;DHT22;59861;50.268;8.648;2022-12-10T05:52:54;15.40;55.10
71994;DHT22;59861;50.268;8.648;2022-12-10T05:55:20;15.40;55.10
71994;DHT22;59861;50.268;8.648;2022-12-10T05:57:47;15.40;55.10
71994;DHT22;59861;50.268;8.648;2022-12-10T06:00:14;15.30;55.10
71994;DHT22;59861;50.268;8.648;2022-12-10T06:02:41;15.40;55.00
71994;DHT22;59861;50.268;8.648;2022-12-10T06:05:08;15.30;55.00
71994;DHT22;59861;50.268;8.648;2022-12-10T06:07:35;15.40;55.00
71994;DHT22;59861;50.268;8.648;2022-12-10T06:10:02;15.30;54.90
71994;DHT22;59861;50.268;8.648;2022-12-10T06:12:29;15.40;54.90
71994;DHT22;59861;50.268;8.648;2022-12-10T06:14:55;15.40;55.10
71994;DHT22;59861;50.268;8.648;2022-12-10T06:17:22;15.40;54.90
71994;DHT22;59861;50.268;8.648;2022-12-10T06:19:49;15.40;55.00
71994;DHT22;59861;50.268;8.648;2022-12-10T06:22:16;15.40;54.90
71994;DHT22;59861;50.268;8.648;2022-12-10T06:24:43;15.40;54.20
71994;DHT22;59861;50.268;8.648;2022-12-10T06:27:09;15.40;54.80
71994;DHT22;59861;50.268;8.648;2022-12-10T06:29:36;15.40;54.80
71994;DHT22;59861;50.268;8.648;2022-12-10T06:32:03;15.40;54.80
71994;DHT22;59861;50.268;8.648;2022-12-10T06:34:30;15.40;54.70
71994;DHT22;59861;50.268;8.648;2022-12-10T06:36:57;15.40;54.70
71994;DHT22;59861;50.268;8.648;2022-12-10T06:39:24;15.30;54.90
71994;DHT22;59861;50.268;8.648;2022-12-10T06:41:50;15.30;55.00
71994;DHT22;59861;50.268;8.648;2022-12-10T06:44:17;15.30;55.20
71994;DHT22;59861;50.268;8.648;2022-12-10T06:46:44;15.30;55.20
71994;DHT22;59861;50.268;8.648;2022-12-10T06:49:11;15.30;55.20
71994;DHT22;59861;50.268;8.648;2022-12-10T06:51:38;15.30;55.20
71994;DHT22;59861;50.268;8.648;2022-12-10T06:54:04;15.30;55.20
71994;DHT22;59861;50.268;8.648;2022-12-10T06:56:31;15.30;55.20
71994;DHT22;59861;50.268;8.648;2022-12-10T06:58:58;15.30;55.20
71994;DHT22;59861;50.268;8.648;2022-12-10T07:01:25;15.30;55.10
71994;DHT22;59861;50.268;8.648;2022-12-10T07:03:55;15.30;55.20
71994;DHT22;59861;50.268;8.648;2022-12-10T07:06:23;15.30;55.10
71994;DHT22;59861;50.268;8.648;2022-12-10T07:08:50;15.40;55.10
71994;DHT22;59861;50.268;8.648;2022-12-10T07:11:19;15.40;55.10
71994;DHT22;59861;50.268;8.648;2022-12-10T07:13:45;15.30;55.00
71994;DHT22;59861;50.268;8.648;2022-12-10T07:16:17;15.30;55.00
71994;DHT22;59861;50.268;8.648;2022-12-10T07:18:44;15.30;55.00
71994;DHT22;59861;50.268;8.648;2022-12-10T07:21:24;15.40;55.10
71994;DHT22;59861;50.268;8.648;2022-12-10T07:23:51;15.30;55.00
71994;DHT22;59861;50.268;8.648;2022-12-10T07:26:19;15.30;55.00
71994;DHT22;59861;50.268;8.648;2022-12-10T07:28:46;15.30;55.00
71994;DHT22;59861;50.268;8.648;2022-12-10T07:31:13;15.30;54.90
71994;DHT22;59861;50.268;8.648;2022-12-10T07:33:40;15.30;55.00
71994;DHT22;59861;50.268;8.648;2022-12-10T07:36:07;15.30;54.90
71994;DHT22;59861;50.268;8.648;2022-12-10T07:38:35;15.30;55.30
71994;DHT22;59861;50.268;8.648;2022-12-10T07:41:05;15.30;54.90
71994;DHT22;59861;50.268;8.648;2022-12-10T07:43:40;15.30;55.00
71994;DHT22;59861;50.268;8.648;2022-12-10T07:46:11;15.30;54.90
71994;DHT22;59861;50.268;8.648;2022-12-10T07:48:34;15.30;54.90
71994;DHT22;59861;50.268;8.648;2022-12-10T07:51:01;15.30;55.00
71994;DHT22;59861;50.268;8.648;2022-12-10T07:53:28;15.30;54.90
71994;DHT22;59861;50.268;8.648;2022-12-10T07:55:55;15.30;54.80
71994;DHT22;59861;50.268;8.648;2022-12-10T07:58:22;15.30;54.90
71994;DHT22;59861;50.268;8.648;2022-12-10T08:00:49;15.30;54.80
71994;DHT22;59861;50.268;8.648;2022-12-10T08:03:16;15.30;54.80
71994;DHT22;59861;50.268;8.648;2022-12-10T08:05:42;15.30;54.80
71994;DHT22;59861;50.268;8.648;2022-12-10T08:08:09;15.30;54.80
71994;DHT22;59861;50.268;8.648;2022-12-10T08:10:37;15.30;54.70
71994;DHT22;59861;50.268;8.648;2022-12-10T08:13:04;15.30;54.60
71994;DHT22;59861;50.268;8.648;2022-12-10T08:15:31;15.30;54.60
71994;DHT22;59861;50.268;8.648;2022-12-10T08:17:58;15.30;54.60
71994;DHT22;59861;50.268;8.648;2022-12-10T08:20:25;15.30;54.60
71994;DHT22;59861;50.268;8.648;2022-12-10T08:22:52;15.30;54.70
71994;DHT22;59861;50.268;8.648;2022-12-10T08:25:19;15.30;54.80
71994;DHT22;59861;50.268;8.648;2022-12-10T08:27:46;15.30;55.00
71994;DHT22;59861;50.268;8.648;2022-12-10T08:30:13;15.20;54.90
71994;DHT22;59861;50.268;8.648;2022-12-10T08:32:39;15.20;55.00
71994;DHT22;59861;50.268;8.648;2022-12-10T08:35:06;15.20;54.90
71994;DHT22;59861;50.268;8.648;2022-12-10T08:37:33;15.20;54.90
71994;DHT22;59861;50.268;8.648;2022-12-10T08:40:00;15.30;54.90
71994;DHT22;59861;50.268;8.648;2022-12-10T08:42:27;15.30;54.90
71994;DHT22;59861;50.268;8.648;2022-12-10T08:44:54;15.30;54.90
71994;DHT22;59861;50.268;8.648;2022-12-10T08:47:21;15.30;54.90
71994;DHT22;59861;50.268;8.648;2022-12-10T08:49:48;15.30;54.90
71994;DHT22;59861;50.268;8.648;2022-12-10T08:52:15;15.30;54.90
71994;DHT22;59861;50.268;8.648;2022-12-10T08:54:41;14.80;48.00
71994;DHT22;59861;50.268;8.648;2022-12-10T08:57:08;13.30;42.90
71994;DHT22;59861;50.268;8.648;2022-12-10T08:59:35;11.30;44.20
71994;DHT22;59861;50.268;8.648;2022-12-10T09:02:02;10.40;48.30
71994;DHT22;59861;50.268;8.648;2022-12-10T09:04:29;11.70;51.50
71994;DHT22;59861;50.268;8.648;2022-12-10T09:06:55;12.70;52.10
71994;DHT22;59861;50.268;8.648;2022-12-10T09:09:22;13.40;52.30
71994;DHT22;59861;50.268;8.648;2022-12-10T09:11:49;13.70;52.20
71994;DHT22;59861;50.268;8.648;2022-12-10T09:14:16;14.10;51.30
71994;DHT22;59861;50.268;8.648;2022-12-10T09:16:43;14.30;51.50
71994;DHT22;59861;50.268;8.648;2022-12-10T09:19:09;14.50;51.30
71994;DHT22;59861;50.268;8.648;2022-12-10T09:21:36;14.70;51.50
71994;DHT22;59861;50.268;8.648;2022-12-10T09:24:03;14.80;51.50
71994;DHT22;59861;50.268;8.648;2022-12-10T09:26:30;15.00;51.80
71994;DHT22;59861;50.268;8.648;2022-12-10T09:28:57;15.10;51.90
71994;DHT22;59861;50.268;8.648;2022-12-10T09:31:25;15.30;52.10
71994;DHT22;59861;50.268;8.648;2022-12-10T09:33:52;15.40;52.80
71994;DHT22;59861;50.268;8.648;2022-12-10T09:36:20;15.50;52.30
71994;DHT22;59861;50.268;8.648;2022-12-10T09:38:47;15.50;52.50
71994;DHT22;59861;50.268;8.648;2022-12-10T09:44:02;15.70;53.30
71994;DHT22;59861;50.268;8.648;2022-12-10T09:46:46;15.90;52.90
71994;DHT22;59861;50.268;8.648;2022-12-10T09:51:59;16.00;53.40
71994;DHT22;59861;50.268;8.648;2022-12-10T09:54:35;16.10;53.40
71994;DHT22;59861;50.268;8.648;2022-12-10T09:57:01;16.20;53.50
71994;DHT22;59861;50.268;8.648;2022-12-10T09:59:43;16.30;53.60
71994;DHT22;59861;50.268;8.648;2022-12-10T10:02:27;16.40;53.80
71994;DHT22;59861;50.268;8.648;2022-12-10T10:04:57;16.50;53.80
71994;DHT22;59861;50.268;8.648;2022-12-10T10:07:28;16.60;53.90
71994;DHT22;59861;50.268;8.648;2022-12-10T10:09:51;16.10;52.60
71994;DHT22;59861;50.268;8.648;2022-12-10T10:12:19;15.80;53.30
71994;DHT22;59861;50.268;8.648;2022-12-10T10:14:45;15.80;54.00
71994;DHT22;59861;50.268;8.648;2022-12-10T10:17:20;15.80;54.20
71994;DHT22;59861;50.268;8.648;2022-12-10T10:19:43;15.70;54.00
71994;DHT22;59861;50.268;8.648;2022-12-10T10:22:10;15.70;54.10
71994;DHT22;59861;50.268;8.648;2022-12-10T10:24:40;15.70;54.20
71994;DHT22;59861;50.268;8.648;2022-12-10T10:27:13;15.80;54.30
71994;DHT22;59861;50.268;8.648;2022-12-10T10:29:42;15.80;54.30
71994;DHT22;59861;50.268;8.648;2022-12-10T10:32:11;15.70;54.20
71994;DHT22;59861;50.268;8.648;2022-12-10T10:34:39;15.70;54.20
71994;DHT22;59861;50.268;8.648;2022-12-10T10:37:06;15.70;54.20
71994;DHT22;59861;50.268;8.648;2022-12-10T10:39:33;15.80;54.30
71994;DHT22;59861;50.268;8.648;2022-12-10T10:42:07;15.80;54.30
71994;DHT22;59861;50.268;8.648;2022-12-10T10:44:34;15.80;54.30
71994;DHT22;59861;50.268;8.648;2022-12-10T10:47:01;15.80;54.20
71994;DHT22;59861;50.268;8.648;2022-12-10T10:49:29;15.80;54.20
71994;DHT22;59861;50.268;8.648;2022-12-10T10:52:04;15.80;54.20
71994;DHT22;59861;50.268;8.648;2022-12-10T10:54:38;15.80;54.90
71994;DHT22;59861;50.268;8.648;2022-12-10T10:57:12;15.70;54.20
71994;DHT22;59861;50.268;8.648;2022-12-10T10:59:41;15.80;54.20
71994;DHT22;59861;50.268;8.648;2022-12-10T11:04:49;15.80;54.20
71994;DHT22;59861;50.268;8.648;2022-12-10T11:07:32;15.80;54.30
71994;DHT22;59861;50.268;8.648;2022-12-10T11:09:53;15.80;54.20
71994;DHT22;59861;50.268;8.648;2022-12-10T11:12:21;15.80;54.20
71994;DHT22;59861;50.268;8.648;2022-12-10T11:14:48;15.80;54.30
71994;DHT22;59861;50.268;8.648;2022-12-10T11:20:31;15.80;54.30
71994;DHT22;59861;50.268;8.648;2022-12-10T11:22:15;15.80;54.80
71994;DHT22;59861;50.268;8.648;2022-12-10T11:24:43;15.90;54.20
71994;DHT22;59861;50.268;8.648;2022-12-10T11:27:12;15.90;54.10
71994;DHT22;59861;50.268;8.648;2022-12-10T11:29:49;16.00;54.10
71994;DHT22;59861;50.268;8.648;2022-12-10T11:32:26;16.00;54.00
71994;DHT22;59861;50.268;8.648;2022-12-10T11:39:58;16.00;53.90
71994;DHT22;59861;50.268;8.648;2022-12-10T11:42:29;16.10;53.80
71994;DHT22;59861;50.268;8.648;2022-12-10T11:45:00;16.10;54.50
71994;DHT22;59861;50.268;8.648;2022-12-10T11:49:58;16.10;53.80
71994;DHT22;59861;50.268;8.648;2022-12-10T11:52:37;16.10;53.70
71994;DHT22;59861;50.268;8.648;2022-12-10T11:55:07;16.10;53.80
71994;DHT22;59861;50.268;8.648;2022-12-10T11:57:35;16.10;54.00
71994;DHT22;59861;50.268;8.648;2022-12-10T12:10:30;16.20;53.80
71994;DHT22;59861;50.268;8.648;2022-12-10T12:13:02;16.20;53.70
71994;DHT22;59861;50.268;8.648;2022-12-10T12:15:30;16.10;53.70
71994;DHT22;59861;50.268;8.648;2022-12-10T12:20:32;16.20;53.90
71994;DHT22;59861;50.268;8.648;2022-12-10T12:23:02;16.10;53.70
71994;DHT22;59861;50.268;8.648;2022-12-10T12:25:30;16.20;53.80
71994;DHT22;59861;50.268;8.648;2022-12-10T12:28:00;16.10;53.70
71994;DHT22;59861;50.268;8.648;2022-12-10T12:30:28;16.10;53.80
71994;DHT22;59861;50.268;8.648;2022-12-10T12:33:13;16.20;54.40
71994;DHT22;59861;50.268;8.648;2022-12-10T12:40:46;16.20;53.70
71994;DHT22;59861;50.268;8.648;2022-12-10T12:43:19;16.20;53.60
71994;DHT22;59861;50.268;8.648;2022-12-10T12:45:46;16.20;53.60
71994;DHT22;59861;50.268;8.648;2022-12-10T12:50:54;16.20;53.60
71994;DHT22;59861;50.268;8.648;2022-12-10T12:53:23;16.20;53.60
71994;DHT22;59861;50.268;8.648;2022-12-10T12:55:58;16.20;53.60
71994;DHT22;59861;50.268;8.648;2022-12-10T12:58:26;16.20;53.60
71994;DHT22;59861;50.268;8.648;2022-12-10T13:00:55;16.20;53.70
71994;DHT22;59861;50.268;8.648;2022-12-10T13:03:29;16.20;53.70
71994;DHT22;59861;50.268;8.648;2022-12-10T13:05:55;16.10;53.60
71994;DHT22;59861;50.268;8.648;2022-12-10T13:08:25;16.10;53.60
71994;DHT22;59861;50.268;8.648;2022-12-10T13:13:39;16.10;53.70
71994;DHT22;59861;50.268;8.648;2022-12-10T13:18:53;16.10;53.80
71994;DHT22;59861;50.268;8.648;2022-12-10T13:21:27;16.10;53.80
71994;DHT22;59861;50.268;8.648;2022-12-10T13:24:09;16.00;53.90
71994;DHT22;59861;50.268;8.648;2022-12-10T13:26:35;16.00;53.90
71994;DHT22;59861;50.268;8.648;2022-12-10T13:29:13;16.00;53.90
71994;DHT22;59861;50.268;8.648;2022-12-10T13:31:39;16.00;54.00
71994;DHT22;59861;50.268;8.648;2022-12-10T13:34:19;16.00;53.90
71994;DHT22;59861;50.268;8.648;2022-12-10T13:36:35;15.90;54.10
71994;DHT22;59861;50.268;8.648;2022-12-10T13:41:40;15.90;54.40
71994;DHT22;59861;50.268;8.648;2022-12-10T13:46:58;15.80;54.50
71994;DHT22;59861;50.268;8.648;2022-12-10T13:49:29;15.80;55.30
71994;DHT22;59861;50.268;8.648;2022-12-10T13:52:00;15.80;54.60
71994;DHT22;59861;50.268;8.648;2022-12-10T13:57:21;15.80;54.60
71994;DHT22;59861;50.268;8.648;2022-12-10T14:00:07;15.80;54.70
71994;DHT22;59861;50.268;8.648;2022-12-10T14:02:37;15.80;54.60
71994;DHT22;59861;50.268;8.648;2022-12-10T14:05:16;15.80;54.60
71994;DHT22;59861;50.268;8.648;2022-12-10T14:07:42;15.80;54.60
71994;DHT22;59861;50.268;8.648;2022-12-10T14:10:13;15.80;54.40
71994;DHT22;59861;50.268;8.648;2022-12-10T14:12:39;15.80;54.40
71994;DHT22;59861;50.268;8.648;2022-12-10T14:15:08;15.60;48.50
71994;DHT22;59861;50.268;8.648;2022-12-10T14:17:38;14.00;47.40
71994;DHT22;59861;50.268;8.648;2022-12-10T14:20:07;14.50;53.90
71994;DHT22;59861;50.268;8.648;2022-12-10T14:22:45;15.00;54.00
71994;DHT22;59861;50.268;8.648;2022-12-10T14:25:05;15.20;53.60
71994;DHT22;59861;50.268;8.648;2022-12-10T14:27:33;15.40;53.70
71994;DHT22;59861;50.268;8.648;2022-12-10T14:30:03;15.50;53.90
71994;DHT22;59861;50.268;8.648;2022-12-10T14:32:35;15.60;54.10
71994;DHT22;59861;50.268;8.648;2022-12-10T14:34:58;15.70;54.00
71994;DHT22;59861;50.268;8.648;2022-12-10T14:37:26;15.80;54.20
71994;DHT22;59861;50.268;8.648;2022-12-10T14:39:54;15.80;54.80
71994;DHT22;59861;50.268;8.648;2022-12-10T14:42:20;15.80;54.90
71994;DHT22;59861;50.268;8.648;2022-12-10T14:44:56;15.90;55.20
71994;DHT22;59861;50.268;8.648;2022-12-10T14:47:17;15.90;55.20
71994;DHT22;59861;50.268;8.648;2022-12-10T14:49:45;15.90;55.20
71994;DHT22;59861;50.268;8.648;2022-12-10T14:52:14;16.00;55.30
71994;DHT22;59861;50.268;8.648;2022-12-10T14:54:41;15.90;55.10
71994;DHT22;59861;50.268;8.648;2022-12-10T14:57:11;16.00;55.10
71994;DHT22;59861;50.268;8.648;2022-12-10T14:59:44;16.00;55.10
71994;DHT22;59861;50.268;8.648;2022-12-10T15:02:16;15.90;55.20
71994;DHT22;59861;50.268;8.648;2022-12-10T15:04:41;15.90;55.50
71994;DHT22;59861;50.268;8.648;2022-12-10T15:07:14;15.90;55.50
71994;DHT22;59861;50.268;8.648;2022-12-10T15:09:38;15.90;55.80
71994;DHT22;59861;50.268;8.648;2022-12-10T15:12:04;16.00;55.90
71994;DHT22;59861;50.268;8.648;2022-12-10T15:14:32;16.00;55.90
71994;DHT22;59861;50.268;8.648;2022-12-10T15:16:59;16.00;56.00
71994;DHT22;59861;50.268;8.648;2022-12-10T15:22:11;16.00;56.30
71994;DHT22;59861;50.268;8.648;2022-12-10T15:24:32;16.10;55.90
71994;DHT22;59861;50.268;8.648;2022-12-10T15:26:55;16.10;56.00
71994;DHT22;59861;50.268;8.648;2022-12-10T15:31:59;16.20;55.80
71994;DHT22;59861;50.268;8.648;2022-12-10T15:34:25;16.20;55.90
71994;DHT22;59861;50.268;8.648;2022-12-10T15:36:51;16.20;55.70
71994;DHT22;59861;50.268;8.648;2022-12-10T15:39:20;16.20;55.60
71994;DHT22;59861;50.268;8.648;2022-12-10T15:49:28;16.40;55.30
71994;DHT22;59861;50.268;8.648;2022-12-10T15:51:56;16.40;55.40
71994;DHT22;59861;50.268;8.648;2022-12-10T15:54:27;16.50;55.30
71994;DHT22;59861;50.268;8.648;2022-12-10T15:56:54;16.50;55.30
71994;DHT22;59861;50.268;8.648;2022-12-10T15:59:21;16.40;55.30
71994;DHT22;59861;50.268;8.648;2022-12-10T16:01:48;16.40;55.10
71994;DHT22;59861;50.268;8.648;2022-12-10T16:04:15;16.40;55.10
71994;DHT22;59861;50.268;8.648;2022-12-10T16:06:42;16.40;55.00
71994;DHT22;59861;50.268;8.648;2022-12-10T16:09:09;16.50;55.00
71994;DHT22;59861;50.268;8.648;2022-12-10T16:11:35;16.40;55.60
71994;DHT22;59861;50.268;8.648;2022-12-10T16:14:02;16.40;54.80
71994;DHT22;59861;50.268;8.648;2022-12-10T16:16:29;16.40;54.90
71994;DHT22;59861;50.268;8.648;2022-12-10T16:18:56;16.40;54.90
71994;DHT22;59861;50.268;8.648;2022-12-10T16:21:23;16.40;54.80
71994;DHT22;59861;50.268;8.648;2022-12-10T16:23:50;16.40;54.90
71994;DHT22;59861;50.268;8.648;2022-12-10T16:26:19;16.40;54.90
71994;DHT22;59861;50.268;8.648;2022-12-10T16:28:46;16.40;55.00
71994;DHT22;59861;50.268;8.648;2022-12-10T16:31:15;16.50;55.60
71994;DHT22;59861;50.268;8.648;2022-12-10T16:33:42;16.60;55.50
71994;DHT22;59861;50.268;8.648;2022-12-10T16:36:10;16.70;55.40
71994;DHT22;59861;50.268;8.648;2022-12-10T16:38:38;16.80;55.20
71994;DHT22;59861;50.268;8.648;2022-12-10T16:41:26;16.80;55.40
71994;DHT22;59861;50.268;8.648;2022-12-10T16:43:33;16.80;55.40
71994;DHT22;59861;50.268;8.648;2022-12-10T16:46:00;16.90;55.40
71994;DHT22;59861;50.268;8.648;2022-12-10T16:48:27;16.90;55.50
71994;DHT22;59861;50.268;8.648;2022-12-10T16:50:54;16.90;55.60
71994;DHT22;59861;50.268;8.648;2022-12-10T16:55:51;16.90;55.60
71994;DHT22;59861;50.268;8.648;2022-12-10T16:58:39;16.90;55.60
71994;DHT22;59861;50.268;8.648;2022-12-10T17:01:09;16.90;55.80
71994;DHT22;59861;50.268;8.648;2022-12-10T17:03:34;16.90;55.80
71994;DHT22;59861;50.268;8.648;2022-12-10T17:06:01;16.90;55.90
71994;DHT22;59861;50.268;8.648;2022-12-10T17:08:29;17.00;56.00